createdAt,value
2018-03-04T00:01:01.370Z,38.22
2018-03-04T00:03:28.126Z,36.10
2018-03-04T00:05:54.954Z,35.00
2018-03-04T00:08:21.742Z,34.92
2018-03-04T00:10:48.538Z,34.03
2018-03-04T00:13:15.357Z,34.45
2018-03-04T00:15:42.114Z,35.25
2018-03-04T00:18:08.907Z,33.30
2018-03-04T00:20:35.653Z,29.45
2018-03-04T00:23:02.420Z,34.20
2018-03-04T00:25:29.216Z,34.38
2018-03-04T00:27:55.978Z,34.63
2018-03-04T00:30:22.775Z,33.38
2018-03-04T00:32:49.537Z,32.38
2018-03-04T00:35:16.294Z,33.72
2018-03-04T00:37:43.085Z,31.77
2018-03-04T00:40:09.909Z,28.10
2018-03-04T00:42:36.708Z,25.92
2018-03-04T00:45:03.505Z,27.87
2018-03-04T00:47:30.282Z,30.70
2018-03-04T00:49:57.143Z,32.05
2018-03-04T00:52:23.921Z,32.42
2018-03-04T00:54:50.815Z,28.80
2018-03-04T00:57:17.588Z,29.83
2018-03-04T00:59:44.359Z,29.52
2018-03-04T01:02:11.159Z,28.20
2018-03-04T01:04:37.915Z,27.20
2018-03-04T01:07:05.450Z,26.00
2018-03-04T01:09:32.269Z,28.95
2018-03-04T01:11:59.046Z,29.02
2018-03-04T01:14:25.896Z,28.42
2018-03-04T01:16:52.650Z,28.62
2018-03-04T01:19:19.448Z,28.70
2018-03-04T01:21:46.247Z,29.12
2018-03-04T01:24:13.036Z,33.35
2018-03-04T01:26:39.792Z,27.62
2018-03-04T01:29:06.571Z,31.83
2018-03-04T01:31:33.354Z,29.45
2018-03-04T01:34:00.131Z,27.08
2018-03-04T01:36:27.593Z,28.10
2018-03-04T01:38:54.392Z,27.85
2018-03-04T01:41:21.174Z,24.87
2018-03-04T01:43:47.970Z,27.58
2018-03-04T01:46:14.726Z,30.85
2018-03-04T01:48:41.500Z,33.95
2018-03-04T01:51:08.270Z,32.05
2018-03-04T01:53:35.035Z,30.48
2018-03-04T01:56:01.835Z,28.75
2018-03-04T01:58:28.618Z,27.23
2018-03-04T02:00:55.500Z,27.48
2018-03-04T02:03:22.274Z,26.55
2018-03-04T02:05:49.070Z,27.65
2018-03-04T02:08:16.232Z,27.20
2018-03-04T02:10:43.011Z,26.87
2018-03-04T02:13:09.769Z,29.27
2018-03-04T02:15:36.667Z,32.30
2018-03-04T02:18:03.503Z,26.35
2018-03-04T02:20:30.262Z,31.27
2018-03-04T02:22:57.035Z,28.55
2018-03-04T02:25:23.912Z,26.90
2018-03-04T02:27:50.669Z,24.70
2018-03-04T02:30:17.430Z,25.23
2018-03-04T02:32:44.214Z,23.73
2018-03-04T02:35:11.000Z,27.50
2018-03-04T02:37:37.779Z,23.67
2018-03-04T02:40:04.579Z,27.80
2018-03-04T02:42:31.363Z,28.08
2018-03-04T02:44:59.082Z,28.27
2018-03-04T02:47:25.842Z,27.83
2018-03-04T02:49:52.694Z,28.27
2018-03-04T02:52:19.450Z,25.52
2018-03-04T02:54:46.235Z,30.20
2018-03-04T02:57:13.055Z,31.90
2018-03-04T02:59:39.858Z,31.23
2018-03-04T03:02:06.713Z,34.10
2018-03-04T03:04:33.513Z,36.90
2018-03-04T03:07:00.277Z,34.15
2018-03-04T03:09:27.042Z,33.92
2018-03-04T03:11:53.845Z,36.17
2018-03-04T03:14:20.650Z,29.50
2018-03-04T03:16:47.395Z,32.80
2018-03-04T03:19:14.158Z,36.13
2018-03-04T03:21:40.939Z,31.25
2018-03-04T03:24:07.772Z,34.40
2018-03-04T03:26:34.535Z,33.25
2018-03-04T03:29:01.290Z,33.28
2018-03-04T03:31:28.062Z,33.78
2018-03-04T03:33:54.845Z,35.33
2018-03-04T03:36:21.609Z,32.85
2018-03-04T03:38:48.390Z,34.20
2018-03-04T03:41:15.155Z,36.25
2018-03-04T03:43:41.907Z,38.47
2018-03-04T03:46:08.681Z,33.10
2018-03-04T03:48:35.475Z,29.48
2018-03-04T03:51:02.283Z,32.88
2018-03-04T03:53:29.054Z,29.70
2018-03-04T03:55:55.812Z,32.25
2018-03-04T03:58:22.566Z,32.03
2018-03-04T04:00:49.353Z,33.13
2018-03-04T04:03:16.147Z,36.35
2018-03-04T04:05:42.932Z,32.30
2018-03-04T04:08:09.704Z,34.33
2018-03-04T04:10:36.467Z,35.45
2018-03-04T04:13:03.202Z,33.67
2018-03-04T04:15:29.974Z,31.55
2018-03-04T04:17:56.769Z,21.90
2018-03-04T04:20:23.655Z,26.77
2018-03-04T04:22:50.431Z,26.30
2018-03-04T04:25:17.179Z,27.75
2018-03-04T04:27:44.009Z,29.70
2018-03-04T04:30:10.776Z,28.77
2018-03-04T04:32:37.567Z,31.20
2018-03-04T04:35:04.342Z,31.48
2018-03-04T04:37:31.107Z,33.63
2018-03-04T04:39:57.870Z,29.12
2018-03-04T04:42:24.646Z,27.25
2018-03-04T04:44:51.404Z,29.50
2018-03-04T04:47:18.177Z,30.27
2018-03-04T04:49:44.935Z,30.88
2018-03-04T04:52:11.694Z,36.15
2018-03-04T04:54:38.493Z,30.73
2018-03-04T04:57:05.320Z,32.88
2018-03-04T04:59:32.142Z,33.55
2018-03-04T05:01:58.881Z,31.35
2018-03-04T05:04:25.610Z,30.85
2018-03-04T05:06:52.400Z,29.73
2018-03-04T05:09:19.183Z,31.35
2018-03-04T05:11:45.971Z,30.48
2018-03-04T05:14:12.754Z,33.28
2018-03-04T05:16:39.514Z,32.72
2018-03-04T05:19:06.333Z,29.02
2018-03-04T05:21:33.078Z,28.55
2018-03-04T05:23:59.867Z,32.53
2018-03-04T05:26:26.670Z,35.08
2018-03-04T05:28:53.418Z,29.83
2018-03-04T05:31:20.174Z,29.30
2018-03-04T05:33:46.944Z,31.05
2018-03-04T05:36:13.729Z,33.88
2018-03-04T05:38:40.478Z,33.50
2018-03-04T05:41:07.249Z,34.33
2018-03-04T05:43:34.002Z,33.50
2018-03-04T05:46:00.847Z,34.42
2018-03-04T05:48:27.634Z,30.55
2018-03-04T05:50:54.419Z,33.50
2018-03-04T05:53:21.190Z,35.38
2018-03-04T05:55:47.929Z,33.05
2018-03-04T05:58:14.732Z,34.47
2018-03-04T06:00:41.517Z,38.47
2018-03-04T06:03:08.281Z,34.22
2018-03-04T06:05:35.070Z,34.00
2018-03-04T06:08:01.866Z,41.85
2018-03-04T06:10:28.658Z,39.72
2018-03-04T06:12:56.341Z,36.92
2018-03-04T06:15:23.133Z,40.95
2018-03-04T06:17:49.953Z,34.97
2018-03-04T06:20:16.746Z,38.28
2018-03-04T06:22:43.518Z,35.58
2018-03-04T06:25:10.310Z,37.00
2018-03-04T06:27:37.038Z,36.45
2018-03-04T06:30:03.854Z,35.95
2018-03-04T06:32:30.615Z,42.33
2018-03-04T06:34:57.415Z,38.70
2018-03-04T06:37:24.219Z,45.03
2018-03-04T06:39:51.021Z,38.40
2018-03-04T06:42:17.790Z,35.67
2018-03-04T06:44:44.569Z,38.60
2018-03-04T06:47:11.418Z,40.55
2018-03-04T06:49:38.177Z,40.85
2018-03-04T06:52:04.973Z,41.80
2018-03-04T06:54:31.724Z,47.65
2018-03-04T06:56:58.514Z,40.40
2018-03-04T06:59:25.325Z,41.92
2018-03-04T07:01:52.083Z,46.88
2018-03-04T07:04:18.844Z,57.50
2018-03-04T07:06:45.690Z,40.85
2018-03-04T07:09:12.479Z,40.63
2018-03-04T07:11:39.332Z,44.65
2018-03-04T07:14:06.118Z,44.92
2018-03-04T07:16:32.886Z,40.88
2018-03-04T07:18:59.676Z,39.35
2018-03-04T07:21:26.441Z,40.42
2018-03-04T07:23:53.209Z,49.13
2018-03-04T07:26:20.013Z,55.08
2018-03-04T07:28:46.780Z,41.63
2018-03-04T07:31:13.559Z,44.72
2018-03-04T07:33:41.725Z,59.20
2018-03-04T07:36:08.515Z,47.20
2018-03-04T07:38:35.327Z,47.88
2018-03-04T07:41:02.137Z,45.78
2018-03-04T07:43:28.935Z,47.05
2018-03-04T07:45:55.762Z,38.95
2018-03-04T07:48:22.606Z,42.40
2018-03-04T07:50:49.420Z,43.42
2018-03-04T07:53:16.263Z,47.67
2018-03-04T07:55:43.104Z,46.10
2018-03-04T07:58:09.885Z,46.80
2018-03-04T08:00:37.392Z,46.70
2018-03-04T08:03:04.202Z,50.45
2018-03-04T08:05:31.002Z,47.00
2018-03-04T08:07:57.839Z,49.72
2018-03-04T08:10:24.849Z,54.45
2018-03-04T08:12:51.654Z,60.03
2018-03-04T08:15:18.467Z,73.60
2018-03-04T08:17:45.245Z,49.47
2018-03-04T08:20:12.084Z,53.20
2018-03-04T08:22:38.877Z,62.53
2018-03-04T08:25:11.456Z,53.07
2018-03-04T08:27:44.132Z,56.00
2018-03-04T08:30:10.894Z,44.80
2018-03-04T08:32:37.704Z,46.40
2018-03-04T08:35:04.499Z,40.07
2018-03-04T08:37:31.259Z,35.20
2018-03-04T08:39:58.039Z,38.30
2018-03-04T08:42:24.841Z,33.77
2018-03-04T08:44:51.733Z,31.23
2018-03-04T08:47:18.506Z,27.80
2018-03-04T08:49:45.299Z,30.07
2018-03-04T08:52:12.104Z,31.97
2018-03-04T08:54:38.839Z,30.87
2018-03-04T08:57:05.622Z,28.73
2018-03-04T08:59:32.506Z,29.27
2018-03-04T09:01:59.293Z,28.53
2018-03-04T09:04:26.124Z,30.20
2018-03-04T09:06:52.903Z,33.87
2018-03-04T09:09:19.786Z,32.03
2018-03-04T09:11:46.580Z,29.63
2018-03-04T09:14:13.371Z,31.13
2018-03-04T09:16:40.265Z,31.00
2018-03-04T09:19:07.335Z,29.77
2018-03-04T09:21:34.400Z,27.53
2018-03-04T09:24:01.200Z,24.30
2018-03-04T09:26:27.981Z,24.40
2018-03-04T09:28:54.753Z,25.50
2018-03-04T09:31:21.633Z,25.13
2018-03-04T09:33:49.668Z,30.30
2018-03-04T09:36:17.689Z,25.60
2018-03-04T09:38:46.353Z,27.20
2018-03-04T09:41:15.486Z,27.50
2018-03-04T09:43:43.544Z,29.07
2018-03-04T09:46:15.772Z,25.17
2018-03-04T09:48:48.405Z,25.57
2018-03-04T09:51:22.841Z,30.17
2018-03-04T09:53:55.516Z,28.10
2018-03-04T09:56:28.105Z,28.63
2018-03-04T10:01:40.019Z,27.67
2018-03-04T10:04:13.892Z,25.37
2018-03-04T10:06:45.630Z,26.10
2018-03-04T10:09:16.642Z,27.37
2018-03-04T10:11:43.458Z,26.80
2018-03-04T10:14:10.231Z,24.90
2018-03-04T10:16:37.007Z,30.07
2018-03-04T10:19:03.819Z,28.73
2018-03-04T10:21:30.601Z,26.33
2018-03-04T10:23:57.387Z,27.60
2018-03-04T10:26:24.190Z,28.73
2018-03-04T10:28:50.979Z,29.77
2018-03-04T10:31:17.751Z,28.30
2018-03-04T10:33:44.499Z,27.67
2018-03-04T10:36:11.275Z,29.87
2018-03-04T10:38:38.059Z,29.20
2018-03-04T10:41:05.108Z,28.77
2018-03-04T10:43:31.925Z,29.07
2018-03-04T10:45:58.976Z,27.67
2018-03-04T10:48:25.741Z,28.97
2018-03-04T10:50:52.497Z,28.63
2018-03-04T10:53:19.255Z,28.10
2018-03-04T10:55:46.022Z,29.13
2018-03-04T10:58:12.818Z,28.67
2018-03-04T11:00:45.474Z,27.03
2018-03-04T11:03:16.971Z,26.30
2018-03-04T11:05:43.728Z,27.60
2018-03-04T11:08:10.566Z,29.07
2018-03-04T11:10:37.343Z,27.87
2018-03-04T11:13:04.149Z,26.97
2018-03-04T11:15:30.915Z,26.43
2018-03-04T11:17:57.678Z,26.73
2018-03-04T11:20:24.774Z,27.60
2018-03-04T11:22:51.534Z,27.13
2018-03-04T11:25:18.322Z,27.23
2018-03-04T11:27:45.370Z,25.30
2018-03-04T11:30:12.135Z,25.63
2018-03-04T11:32:38.894Z,25.67
2018-03-04T11:35:05.662Z,25.30
2018-03-04T11:37:32.426Z,24.37
2018-03-04T11:39:59.178Z,25.20
2018-03-04T11:42:25.964Z,25.53
2018-03-04T11:44:52.727Z,24.47
2018-03-04T11:47:19.498Z,24.90
2018-03-04T11:49:46.286Z,24.93
2018-03-04T11:52:13.069Z,25.40
2018-03-04T11:54:39.822Z,25.27
2018-03-04T11:57:06.609Z,23.60
2018-03-04T11:59:33.414Z,23.63
2018-03-04T12:02:00.193Z,25.83
2018-03-04T12:04:26.983Z,25.40
2018-03-04T12:06:53.809Z,24.17
2018-03-04T12:09:20.606Z,23.43
2018-03-04T12:11:47.367Z,25.07
2018-03-04T12:14:14.124Z,24.90
2018-03-04T12:16:40.874Z,23.07
2018-03-04T12:19:07.934Z,24.63
2018-03-04T12:21:34.722Z,25.53
2018-03-04T12:24:01.544Z,24.53
2018-03-04T12:26:28.321Z,24.03
2018-03-04T12:28:55.087Z,24.90
2018-03-04T12:31:21.891Z,25.43
2018-03-04T12:33:48.661Z,24.13
2018-03-04T12:36:15.465Z,23.77
2018-03-04T12:38:42.502Z,25.70
2018-03-04T12:41:10.223Z,25.10
2018-03-04T12:43:36.974Z,24.30
2018-03-04T12:46:03.717Z,26.10
2018-03-04T12:48:30.476Z,26.50
2018-03-04T12:50:57.607Z,26.40
2018-03-04T12:53:24.415Z,26.50
2018-03-04T12:55:51.195Z,26.80
2018-03-04T12:58:18.029Z,26.87
2018-03-04T13:00:44.782Z,26.50
2018-03-04T13:03:11.573Z,28.63
2018-03-04T13:05:38.433Z,27.37
2018-03-04T13:08:05.539Z,27.93
2018-03-04T13:10:32.561Z,27.67
2018-03-04T13:12:59.356Z,29.63
2018-03-04T13:15:26.151Z,29.27
2018-03-04T13:17:52.983Z,31.50
2018-03-04T13:20:19.736Z,29.10
2018-03-04T13:22:46.500Z,39.13
2018-03-04T13:25:13.290Z,37.93
2018-03-04T13:27:40.762Z,27.40
2018-03-04T13:30:07.522Z,32.33
2018-03-04T13:32:34.375Z,28.40
2018-03-04T13:35:01.806Z,27.83
2018-03-04T13:37:28.603Z,26.07
2018-03-04T13:39:55.350Z,31.37
2018-03-04T13:42:22.121Z,29.03
2018-03-04T13:44:48.955Z,31.10
2018-03-04T13:47:15.705Z,29.80
2018-03-04T13:49:42.633Z,37.30
2018-03-04T13:52:09.638Z,32.57
2018-03-04T13:54:36.379Z,31.63
2018-03-04T13:57:03.154Z,37.43
2018-03-04T13:59:29.948Z,36.57
2018-03-04T14:01:56.734Z,30.40
2018-03-04T14:04:23.596Z,31.13
2018-03-04T14:06:50.400Z,32.57
2018-03-04T14:09:18.127Z,35.63
2018-03-04T14:11:45.528Z,33.57
2018-03-04T14:14:12.787Z,31.37
2018-03-04T14:16:39.580Z,28.40
2018-03-04T14:19:06.380Z,29.53
2018-03-04T14:21:33.247Z,31.03
2018-03-04T14:24:00.035Z,29.53
2018-03-04T14:26:26.846Z,31.20
2018-03-04T14:28:53.649Z,29.50
2018-03-04T14:31:20.454Z,30.13
2018-03-04T14:33:47.298Z,30.83
2018-03-04T14:36:14.088Z,29.60
2018-03-04T14:38:40.876Z,28.47
2018-03-04T14:41:07.716Z,29.00
2018-03-04T14:43:34.528Z,29.63
2018-03-04T14:46:01.297Z,38.80
2018-03-04T14:48:28.082Z,32.53
2018-03-04T14:50:54.830Z,33.87
2018-03-04T14:53:21.631Z,31.47
2018-03-04T14:55:48.406Z,31.53
2018-03-04T14:58:15.138Z,30.77
2018-03-04T15:00:41.907Z,27.47
2018-03-04T15:03:08.680Z,25.70
2018-03-04T15:05:35.432Z,28.07
2018-03-04T15:08:02.187Z,24.00
2018-03-04T15:10:28.967Z,23.30
2018-03-04T15:12:55.802Z,26.27
2018-03-04T15:15:22.614Z,23.07
2018-03-04T15:17:49.375Z,23.33
2018-03-04T15:20:16.131Z,21.77
2018-03-04T15:22:42.946Z,22.33
2018-03-04T15:25:09.720Z,21.23
2018-03-04T15:27:36.526Z,23.13
2018-03-04T15:30:03.347Z,22.40
2018-03-04T15:32:30.172Z,21.47
2018-03-04T15:34:56.991Z,20.90
2018-03-04T15:37:23.773Z,18.40
2018-03-04T15:39:50.700Z,21.17
2018-03-04T15:42:17.647Z,21.23
2018-03-04T15:44:44.611Z,21.60
2018-03-04T15:47:11.403Z,23.73
2018-03-04T15:49:38.193Z,22.43
2018-03-04T15:52:04.954Z,20.07
2018-03-04T15:54:31.756Z,19.80
2018-03-04T15:56:58.518Z,20.50
2018-03-04T15:59:25.272Z,18.87
2018-03-04T16:01:52.053Z,20.47
2018-03-04T16:04:19.330Z,22.37
2018-03-04T16:06:46.180Z,21.47
2018-03-04T16:09:12.928Z,24.20
2018-03-04T16:11:39.726Z,24.20
2018-03-04T16:14:06.546Z,24.47
2018-03-04T16:16:33.336Z,27.17
2018-03-04T16:19:00.123Z,27.03
2018-03-04T16:21:26.920Z,27.77
2018-03-04T16:23:53.706Z,27.30
2018-03-04T16:26:20.502Z,27.67
2018-03-04T16:28:47.308Z,28.57
2018-03-04T16:31:14.049Z,29.50
2018-03-04T16:33:40.819Z,47.10
2018-03-04T16:36:07.591Z,34.63
2018-03-04T16:38:34.374Z,29.37
2018-03-04T16:41:01.721Z,28.57
2018-03-04T16:43:28.900Z,31.63
2018-03-04T16:45:55.709Z,33.17
2018-03-04T16:48:22.494Z,38.50
2018-03-04T16:50:50.552Z,40.83
2018-03-04T16:53:17.458Z,34.83
2018-03-04T16:55:44.214Z,33.93
2018-03-04T16:58:11.005Z,31.27
2018-03-04T17:00:37.851Z,30.60
2018-03-04T17:03:04.642Z,30.53
2018-03-04T17:05:31.423Z,32.47
2018-03-04T17:07:58.457Z,33.37
2018-03-04T17:10:25.209Z,33.73
2018-03-04T17:12:51.978Z,33.60
2018-03-04T17:15:18.790Z,32.30
2018-03-04T17:17:45.554Z,36.80
2018-03-04T17:20:12.380Z,35.00
2018-03-04T17:22:39.217Z,38.67
2018-03-04T17:25:06.017Z,38.23
2018-03-04T17:27:32.806Z,40.67
2018-03-04T17:29:59.578Z,40.30
2018-03-04T17:32:26.433Z,42.23
2018-03-04T17:34:53.215Z,42.40
2018-03-04T17:37:20.045Z,39.90
2018-03-04T17:39:46.816Z,42.80
2018-03-04T17:42:13.614Z,39.73
2018-03-04T17:44:40.414Z,44.47
2018-03-04T17:47:07.187Z,46.10
2018-03-04T17:49:34.011Z,47.67
2018-03-04T17:52:00.810Z,49.03
2018-03-04T17:54:27.651Z,50.67
2018-03-04T17:56:54.467Z,48.63
2018-03-04T17:59:21.254Z,50.03
2018-03-04T18:01:48.059Z,53.73
2018-03-04T18:04:14.836Z,51.67
2018-03-04T18:06:42.613Z,55.20
2018-03-04T18:09:09.408Z,54.60
2018-03-04T18:11:36.175Z,56.23
2018-03-04T18:14:03.343Z,59.33
2018-03-04T18:16:30.150Z,56.37
2018-03-04T18:18:56.926Z,56.80
2018-03-04T18:21:25.865Z,53.70
2018-03-04T18:23:52.792Z,53.03
2018-03-04T18:26:19.614Z,78.67
2018-03-04T18:31:47.128Z,63.13
2018-03-04T18:34:17.996Z,64.27
2018-03-04T18:36:44.810Z,60.93
2018-03-04T18:39:11.599Z,59.83
2018-03-04T18:41:38.370Z,55.47
2018-03-04T18:44:05.217Z,55.13
2018-03-04T18:46:31.980Z,58.60
2018-03-04T18:48:58.866Z,55.40
2018-03-04T18:51:25.678Z,54.10
2018-03-04T18:53:52.472Z,58.60
2018-03-04T18:56:20.180Z,54.67
2018-03-04T18:58:48.207Z,54.30
2018-03-04T19:01:15.153Z,53.07
2018-03-04T19:03:42.002Z,51.83
2018-03-04T19:06:08.895Z,51.57
2018-03-04T19:08:35.714Z,56.07
2018-03-04T19:11:02.638Z,53.07
2018-03-04T19:13:29.461Z,52.43
2018-03-04T19:15:56.278Z,53.70
2018-03-04T19:18:23.168Z,54.73
2018-03-04T19:20:49.966Z,48.37
2018-03-04T19:23:16.764Z,50.40
2018-03-04T19:25:43.626Z,50.77
2018-03-04T19:28:10.462Z,50.77
2018-03-04T19:30:37.230Z,49.87
2018-03-04T19:33:04.084Z,46.93
2018-03-04T19:35:30.980Z,48.00
2018-03-04T19:37:57.824Z,63.47
2018-03-04T19:40:24.667Z,55.30
2018-03-04T19:42:51.433Z,52.90
2018-03-04T19:45:18.318Z,51.50
2018-03-04T19:47:45.096Z,51.50
2018-03-04T19:50:11.895Z,52.17
2018-03-04T19:52:39.016Z,70.80
2018-03-04T19:55:05.847Z,56.07
2018-03-04T19:57:32.676Z,51.73
2018-03-04T19:59:59.933Z,53.97
2018-03-04T20:02:26.801Z,52.73
2018-03-04T20:04:53.603Z,52.23
2018-03-04T20:07:20.410Z,52.23
2018-03-04T20:09:47.196Z,49.37
2018-03-04T20:12:14.027Z,48.33
2018-03-04T20:14:40.832Z,50.97
2018-03-04T20:17:07.666Z,48.30
2018-03-04T20:19:34.726Z,50.90
2018-03-04T20:22:01.572Z,54.47
2018-03-04T20:24:28.423Z,70.07
2018-03-04T20:26:55.295Z,60.83
2018-03-04T20:29:22.082Z,74.37
2018-03-04T20:31:49.009Z,76.35
2018-03-04T20:34:15.971Z,81.60
2018-03-04T20:36:42.991Z,74.87
2018-03-04T20:39:10.117Z,60.57
2018-03-04T20:41:36.974Z,55.00
2018-03-04T20:44:03.907Z,50.33
2018-03-04T20:46:30.752Z,53.23
2018-03-04T20:48:58.009Z,53.30
2018-03-04T20:51:24.868Z,60.20
2018-03-04T20:53:51.687Z,63.00
2018-03-04T20:56:18.557Z,59.50
2018-03-04T20:58:45.348Z,57.27
2018-03-04T21:01:12.315Z,57.13
2018-03-04T21:03:39.406Z,56.53
2018-03-04T21:06:06.621Z,53.20
2018-03-04T21:08:33.497Z,55.67
2018-03-04T21:11:00.278Z,52.47
2018-03-04T21:13:27.106Z,50.07
2018-03-04T21:15:53.936Z,49.80
2018-03-04T21:18:22.054Z,52.57
2018-03-04T21:20:48.952Z,54.17
2018-03-04T21:23:16.302Z,50.93
2018-03-04T21:25:43.175Z,56.90
2018-03-04T21:28:10.006Z,52.43
2018-03-04T21:30:36.792Z,52.63
2018-03-04T21:33:03.627Z,48.63
2018-03-04T21:35:30.468Z,53.83
2018-03-04T21:37:58.692Z,51.87
2018-03-04T21:40:25.484Z,54.53
2018-03-04T21:42:52.342Z,55.20
2018-03-04T21:45:19.172Z,51.63
2018-03-04T21:47:45.976Z,53.47
2018-03-04T21:50:12.784Z,57.97
2018-03-04T21:52:39.612Z,58.87
2018-03-04T21:55:06.430Z,51.90
2018-03-04T21:57:33.248Z,53.97
2018-03-04T22:00:00.078Z,50.20
2018-03-04T22:02:26.846Z,51.93
2018-03-04T22:04:53.624Z,54.90
2018-03-04T22:07:20.488Z,52.50
2018-03-04T22:09:49.124Z,56.03
2018-03-04T22:12:18.548Z,54.87
2018-03-04T22:14:50.601Z,57.97
2018-03-04T22:17:18.108Z,55.27
2018-03-04T22:19:44.994Z,53.90
2018-03-04T22:22:23.920Z,53.20
2018-03-04T22:27:42.100Z,54.93
2018-03-04T22:30:08.884Z,55.13
2018-03-04T22:32:35.665Z,57.33
2018-03-04T22:35:02.457Z,56.87
2018-03-04T22:37:29.331Z,60.20
2018-03-04T22:39:56.199Z,58.17
2018-03-04T22:42:23.023Z,56.90
2018-03-04T22:44:50.520Z,60.40
2018-03-04T22:47:18.037Z,57.93
2018-03-04T22:49:44.826Z,56.53
2018-03-04T22:52:11.655Z,58.47
2018-03-04T22:54:38.483Z,56.43
2018-03-04T22:57:05.323Z,60.90
2018-03-04T22:59:32.192Z,57.87
2018-03-04T23:01:59.868Z,58.60
2018-03-04T23:04:26.712Z,59.27
2018-03-04T23:06:53.546Z,70.43
2018-03-04T23:09:20.407Z,63.47
2018-03-04T23:11:47.219Z,86.70
2018-03-04T23:14:14.637Z,137.60
2018-03-04T23:16:41.473Z,126.57
2018-03-04T23:19:08.274Z,84.67
2018-03-04T23:21:35.051Z,68.40
2018-03-04T23:24:01.964Z,78.23
2018-03-04T23:26:32.195Z,79.67
2018-03-04T23:28:58.995Z,60.90
2018-03-04T23:31:26.567Z,135.07
2018-03-04T23:33:53.476Z,88.37
2018-03-04T23:36:20.238Z,70.80
2018-03-04T23:38:47.148Z,74.53
2018-03-04T23:41:13.947Z,61.77
2018-03-04T23:43:40.711Z,86.17
2018-03-04T23:46:08.167Z,74.87
2018-03-04T23:48:34.981Z,64.00
2018-03-04T23:51:01.750Z,67.63
2018-03-04T23:53:28.540Z,99.67
2018-03-04T23:55:55.339Z,64.77
2018-03-04T23:58:22.983Z,70.67
